createdAt,value
2023-04-11T00:00:44.021Z,97762.03
2023-04-11T00:03:17.112Z,97752.50
2023-04-11T00:05:45.770Z,97768.88
2023-04-11T00:08:15.904Z,97763.72
2023-04-11T00:10:45.749Z,97746.44
2023-04-11T00:13:14.251Z,97737.03
2023-04-11T00:15:42.590Z,97749.84
2023-04-11T00:18:12.712Z,97747.38
2023-04-11T00:20:41.346Z,97745.63
2023-04-11T00:23:09.647Z,97721.50
2023-04-11T00:25:39.441Z,97721.63
2023-04-11T00:28:07.914Z,97731.09
2023-04-11T00:30:36.478Z,97729.44
2023-04-11T00:33:05.346Z,97714.19
2023-04-11T00:35:35.394Z,97723.50
2023-04-11T00:38:04.270Z,97724.38
2023-04-11T00:40:32.718Z,97709.72
2023-04-11T00:43:02.633Z,97721.78
2023-04-11T00:45:31.259Z,97706.28
2023-04-11T00:47:59.923Z,97722.66
2023-04-11T00:50:28.599Z,97714.06
2023-04-11T00:52:59.273Z,97717.63
2023-04-11T00:55:28.779Z,97713.28
2023-04-11T00:57:57.916Z,97708.94
2023-04-11T01:00:29.144Z,97700.19
2023-04-11T01:02:59.031Z,97691.53
2023-04-11T01:05:28.536Z,97666.63
2023-04-11T01:07:57.741Z,97666.63
2023-04-11T01:10:30.845Z,97684.03
2023-04-11T01:13:00.854Z,97666.13
2023-04-11T01:15:31.084Z,97672.19
2023-04-11T01:18:02.495Z,97674.53
2023-04-11T01:20:31.920Z,97667.63
2023-04-11T01:23:03.336Z,97675.59
2023-04-11T01:25:33.339Z,97663.56
2023-04-11T01:28:01.929Z,97654.81
2023-04-11T01:30:30.527Z,97653.91
2023-04-11T01:32:58.979Z,97653.91
2023-04-11T01:35:27.729Z,97646.13
2023-04-11T01:37:55.984Z,97640.09
2023-04-11T01:40:24.890Z,97640.03
2023-04-11T01:42:55.593Z,97645.19
2023-04-11T01:45:25.162Z,97620.34
2023-04-11T01:47:54.760Z,97643.72
2023-04-11T01:50:23.378Z,97655.19
2023-04-11T01:52:52.899Z,97637.84
2023-04-11T01:55:21.567Z,97625.84
2023-04-11T01:57:50.050Z,97637.81
2023-04-11T02:00:20.672Z,97617.94
2023-04-11T02:02:49.200Z,97621.25
2023-04-11T02:05:17.672Z,97608.25
2023-04-11T02:07:46.066Z,97604.72
2023-04-11T02:10:19.369Z,97608.72
2023-04-11T02:12:47.817Z,97600.09
2023-04-11T02:15:16.235Z,97596.72
2023-04-11T02:17:46.437Z,97597.47
2023-04-11T02:20:15.643Z,97584.69
2023-04-11T02:22:44.163Z,97589.03
2023-04-11T02:25:12.573Z,97584.56
2023-04-11T02:27:41.049Z,97571.59
2023-04-11T02:30:10.136Z,97577.72
2023-04-11T02:32:39.411Z,97572.47
2023-04-11T02:35:10.804Z,97580.28
2023-04-11T02:37:42.297Z,97562.31
2023-04-11T02:40:11.654Z,97569.94
2023-04-11T02:42:43.243Z,97541.25
2023-04-11T02:45:13.177Z,97559.38
2023-04-11T02:47:41.600Z,97564.44
2023-04-11T02:50:12.714Z,97555.06
2023-04-11T02:52:47.988Z,97548.06
2023-04-11T02:55:18.713Z,97560.91
2023-04-11T02:57:47.117Z,97542.66
2023-04-11T03:00:18.270Z,97564.25
2023-04-11T03:02:51.025Z,97562.56
2023-04-11T03:05:25.382Z,97553.09
2023-04-11T03:07:57.920Z,97545.00
2023-04-11T03:10:28.866Z,97541.50
2023-04-11T03:12:58.103Z,97529.38
2023-04-11T03:15:26.977Z,97516.28
2023-04-11T03:17:56.375Z,97522.13
2023-04-11T03:20:26.536Z,97528.81
2023-04-11T03:22:55.845Z,97512.41
2023-04-11T03:25:25.411Z,97508.88
2023-04-11T03:27:54.684Z,97501.19
2023-04-11T03:30:23.068Z,97504.69
2023-04-11T03:32:53.219Z,97510.69
2023-04-11T03:35:21.957Z,97497.66
2023-04-11T03:37:53.338Z,97500.13
2023-04-11T03:40:22.803Z,97489.81
2023-04-11T03:42:57.697Z,97499.13
2023-04-11T03:45:29.776Z,97489.56
2023-04-11T03:48:00.565Z,97484.34
2023-04-11T03:50:37.809Z,97501.63
2023-04-11T03:53:08.250Z,97498.94
2023-04-11T03:55:37.008Z,97500.66
2023-04-11T03:58:06.894Z,97498.75
2023-04-11T04:00:35.277Z,97504.78
2023-04-11T04:03:08.706Z,97499.50
2023-04-11T04:05:38.823Z,97490.78
2023-04-11T04:08:09.439Z,97500.19
2023-04-11T04:10:55.535Z,97476.78
2023-04-11T04:13:24.334Z,97482.00
2023-04-11T04:16:22.673Z,97479.25
2023-04-11T04:18:56.633Z,97472.97
2023-04-11T04:21:26.879Z,97471.44
2023-04-11T04:24:03.775Z,97471.53
2023-04-11T04:26:50.479Z,97468.91
2023-04-11T04:29:38.442Z,97476.78
2023-04-11T04:32:11.915Z,97478.50
2023-04-11T04:34:49.714Z,97471.53
2023-04-11T04:37:28.214Z,97474.72
2023-04-11T04:40:13.520Z,97465.53
2023-04-11T04:42:58.538Z,97473.22
2023-04-11T04:45:38.248Z,97465.38
2023-04-11T04:48:07.068Z,97459.19
2023-04-11T04:50:35.837Z,97452.31
2023-04-11T04:53:04.366Z,97468.63
2023-04-11T04:55:34.715Z,97454.63
2023-04-11T04:58:03.591Z,97453.69
2023-04-11T05:00:33.775Z,97448.28
2023-04-11T05:03:06.233Z,97467.28
2023-04-11T05:05:35.301Z,97466.34
2023-04-11T05:08:05.290Z,97453.25
2023-04-11T05:10:37.229Z,97461.75
2023-04-11T05:13:07.785Z,97461.53
2023-04-11T05:15:36.322Z,97456.16
2023-04-11T05:18:04.956Z,97456.53
2023-04-11T05:20:36.535Z,97444.88
2023-04-11T05:23:06.371Z,97454.66
2023-04-11T05:25:36.512Z,97449.19
2023-04-11T05:28:07.491Z,97449.50
2023-04-11T05:30:35.992Z,97452.53
2023-04-11T05:33:04.591Z,97447.84
2023-04-11T05:35:33.431Z,97438.19
2023-04-11T05:38:01.857Z,97435.06
2023-04-11T05:40:30.225Z,97434.66
2023-04-11T05:42:59.984Z,97425.97
2023-04-11T05:45:28.420Z,97430.16
2023-04-11T05:48:01.576Z,97418.38
2023-04-11T05:50:29.938Z,97407.47
2023-04-11T05:52:58.269Z,97429.75
2023-04-11T05:55:26.716Z,97404.69
2023-04-11T05:57:54.993Z,97396.78
2023-04-11T06:00:26.316Z,97408.66
2023-04-11T06:02:55.050Z,97412.81
2023-04-11T06:05:23.748Z,97421.53
2023-04-11T06:07:52.576Z,97418.03
2023-04-11T06:10:20.985Z,97415.25
2023-04-11T06:12:49.504Z,97420.22
2023-04-11T06:15:18.279Z,97411.00
2023-04-11T06:17:48.278Z,97405.94
2023-04-11T06:20:17.007Z,97418.19
2023-04-11T06:22:47.009Z,97402.09
2023-04-11T06:25:15.772Z,97402.78
2023-04-11T06:27:44.103Z,97397.03
2023-04-11T06:30:12.895Z,97409.81
2023-04-11T06:32:41.503Z,97400.69
2023-04-11T06:35:11.583Z,97382.75
2023-04-11T06:37:39.903Z,97389.78
2023-04-11T06:40:09.943Z,97384.06
2023-04-11T06:42:38.483Z,97390.72
2023-04-11T06:45:08.037Z,97406.50
2023-04-11T06:47:36.234Z,97385.44
2023-04-11T06:50:04.696Z,97379.88
2023-04-11T06:52:34.413Z,97393.34
2023-04-11T06:55:02.792Z,97388.25
2023-04-11T06:57:31.082Z,97388.78
2023-04-11T06:59:59.533Z,97371.25
2023-04-11T07:02:28.060Z,97374.69
2023-04-11T07:04:56.483Z,97379.97
2023-04-11T07:07:25.051Z,97384.72
2023-04-11T07:09:54.689Z,97357.47
2023-04-11T07:12:22.781Z,97368.72
2023-04-11T07:14:51.101Z,97339.69
2023-04-11T07:17:19.693Z,97344.69
2023-04-11T07:19:48.013Z,97336.00
2023-04-11T07:22:16.383Z,97330.53
2023-04-11T07:24:46.868Z,97315.25
2023-04-11T07:27:17.739Z,97323.25
2023-04-11T07:29:46.516Z,97329.13
2023-04-11T07:32:14.822Z,97330.63
2023-04-11T07:34:43.126Z,97343.84
2023-04-11T07:37:12.604Z,97356.41
2023-04-11T07:39:41.357Z,97349.56
2023-04-11T07:42:09.956Z,97336.59
2023-04-11T07:44:39.921Z,97343.03
2023-04-11T07:47:08.428Z,97348.50
2023-04-11T07:49:36.861Z,97333.25
2023-04-11T07:52:05.089Z,97329.25
2023-04-11T07:54:34.147Z,97331.88
2023-04-11T07:57:02.960Z,97316.94
2023-04-11T07:59:31.473Z,97309.69
2023-04-11T08:02:03.157Z,97321.09
2023-04-11T08:04:34.632Z,97313.31
2023-04-11T08:07:03.389Z,97315.75
2023-04-11T08:09:32.008Z,97308.75
2023-04-11T08:12:01.840Z,97321.16
2023-04-11T08:14:30.239Z,97323.00
2023-04-11T08:16:58.892Z,97307.25
2023-04-11T08:19:28.957Z,97324.16
2023-04-11T08:21:57.400Z,97328.22
2023-04-11T08:24:26.025Z,97317.59
2023-04-11T08:26:54.504Z,97315.53
2023-04-11T08:29:23.012Z,97315.19
2023-04-11T08:31:51.457Z,97320.19
2023-04-11T08:34:20.081Z,97312.78
2023-04-11T08:36:49.776Z,97313.63
2023-04-11T08:39:18.532Z,97316.41
2023-04-11T08:41:47.718Z,97314.50
2023-04-11T08:44:16.283Z,97303.25
2023-04-11T08:46:45.129Z,97289.69
2023-04-11T08:49:13.641Z,97292.44
2023-04-11T08:51:45.158Z,97298.59
2023-04-11T08:54:14.767Z,97284.91
2023-04-11T08:56:44.126Z,97294.31
2023-04-11T08:59:12.466Z,97283.19
2023-04-11T09:01:41.071Z,97276.06
2023-04-11T09:04:11.646Z,97276.22
2023-04-11T09:06:42.619Z,97277.75
2023-04-11T09:09:31.773Z,97258.44
2023-04-11T09:12:00.440Z,97250.06
2023-04-11T09:14:29.011Z,97251.66
2023-04-11T09:16:59.720Z,97241.25
2023-04-11T09:19:29.973Z,97239.59
2023-04-11T09:22:00.662Z,97237.16
2023-04-11T09:24:32.030Z,97223.59
2023-04-11T09:27:12.950Z,97237.06
2023-04-11T09:29:42.680Z,97235.16
2023-04-11T09:32:32.477Z,97222.22
2023-04-11T09:35:12.039Z,97220.09
2023-04-11T09:37:45.880Z,97233.91
2023-04-11T09:40:17.160Z,97230.44
2023-04-11T09:42:46.867Z,97225.31
2023-04-11T09:45:20.201Z,97231.66
2023-04-11T09:47:50.660Z,97234.53
2023-04-11T09:50:19.394Z,97240.69
2023-04-11T09:52:48.236Z,97230.22
2023-04-11T09:55:21.048Z,97212.19
2023-04-11T09:57:50.631Z,97231.84
2023-04-11T10:00:22.154Z,97224.16
2023-04-11T10:02:53.064Z,97198.06
2023-04-11T10:05:26.145Z,97215.25
2023-04-11T10:08:01.260Z,97222.13
2023-04-11T10:10:31.774Z,97233.53
2023-04-11T10:13:00.431Z,97240.06
2023-04-11T10:15:30.229Z,97235.69
2023-04-11T10:18:12.592Z,97206.13
2023-04-11T10:20:46.352Z,97188.72
2023-04-11T10:23:16.747Z,97198.88
2023-04-11T10:25:58.687Z,97194.78
2023-04-11T10:28:38.433Z,97166.00
2023-04-11T10:31:13.551Z,97137.50
2023-04-11T10:34:02.689Z,97143.50
2023-04-11T10:37:05.139Z,97129.50
2023-04-11T10:40:10.573Z,97113.28
2023-04-11T10:42:42.845Z,97104.34
2023-04-11T10:45:25.669Z,97113.31
2023-04-11T10:48:07.739Z,97113.34
2023-04-11T10:50:42.598Z,97104.06
2023-04-11T10:53:36.682Z,97115.59
2023-04-11T10:56:05.495Z,97125.44
2023-04-11T10:58:40.760Z,97129.22
2023-04-11T11:01:37.077Z,97128.09
2023-04-11T11:04:06.790Z,97128.81
2023-04-11T11:06:46.248Z,97100.69
2023-04-11T11:09:23.410Z,97098.31
2023-04-11T11:12:07.196Z,97089.66
2023-04-11T11:14:37.989Z,97103.00
2023-04-11T11:17:06.898Z,97101.84
2023-04-11T11:19:36.211Z,97111.31
2023-04-11T11:22:06.347Z,97094.34
2023-04-11T11:24:34.998Z,97084.94
2023-04-11T11:27:03.444Z,97089.53
2023-04-11T11:29:32.866Z,97100.63
2023-04-11T11:32:04.164Z,97096.53
2023-04-11T11:34:34.735Z,97078.63
2023-04-11T11:37:05.519Z,97062.06
2023-04-11T11:39:34.315Z,97061.91
2023-04-11T11:42:03.680Z,97060.41
2023-04-11T11:44:33.131Z,97062.41
2023-04-11T11:47:09.250Z,97074.09
2023-04-11T11:49:48.283Z,97081.44
2023-04-11T11:52:33.342Z,97081.13
2023-04-11T11:55:02.517Z,97067.91
2023-04-11T11:57:31.370Z,97060.03
2023-04-11T12:00:04.192Z,97072.19
2023-04-11T12:02:36.627Z,97060.81
2023-04-11T12:05:08.240Z,97059.19
2023-04-11T12:07:39.217Z,97062.41
2023-04-11T12:10:12.058Z,97055.66
2023-04-11T12:12:42.289Z,97061.25
2023-04-11T12:15:13.047Z,97049.75
2023-04-11T12:17:43.341Z,97051.72
2023-04-11T12:20:12.383Z,97055.94
2023-04-11T12:22:40.712Z,97055.88
2023-04-11T12:25:11.141Z,97042.22
2023-04-11T12:27:41.178Z,97037.78
2023-04-11T12:30:10.657Z,97036.66
2023-04-11T12:32:39.584Z,97025.94
2023-04-11T12:35:10.485Z,97034.78
2023-04-11T12:37:39.642Z,97034.44
2023-04-11T12:40:11.155Z,97040.81
2023-04-11T12:45:13.629Z,97035.75
2023-04-11T12:47:42.634Z,97038.13
2023-04-11T12:50:12.850Z,97030.63
2023-04-11T12:52:41.740Z,97028.03
2023-04-11T12:55:11.317Z,97023.44
2023-04-11T12:57:39.964Z,97031.25
2023-04-11T13:00:13.147Z,97026.28
2023-04-11T13:02:44.411Z,97019.03
2023-04-11T13:05:16.582Z,97008.53
2023-04-11T13:07:46.719Z,97002.59
2023-04-11T13:10:16.039Z,97010.22
2023-04-11T13:12:45.893Z,97009.44
2023-04-11T13:15:17.006Z,97004.53
2023-04-11T13:17:46.078Z,96998.06
2023-04-11T13:20:15.877Z,97003.59
2023-04-11T13:22:44.556Z,97020.41
2023-04-11T13:25:13.497Z,97006.34
2023-04-11T13:27:43.120Z,96994.25
2023-04-11T13:30:12.536Z,96995.41
2023-04-11T13:32:41.105Z,97004.69
2023-04-11T13:35:10.422Z,96990.22
2023-04-11T13:37:40.700Z,96976.31
2023-04-11T13:40:11.366Z,96988.06
2023-04-11T13:42:40.122Z,96970.09
2023-04-11T13:45:10.125Z,96969.47
2023-04-11T13:47:39.182Z,96968.97
2023-04-11T13:50:09.682Z,96976.00
2023-04-11T13:52:39.589Z,96985.88
2023-04-11T13:55:08.479Z,96983.78
2023-04-11T13:57:37.221Z,96991.22
2023-04-11T14:00:11.265Z,97002.31
2023-04-11T14:02:41.379Z,96994.13
2023-04-11T14:05:11.614Z,96986.13
2023-04-11T14:07:41.756Z,96998.22
2023-04-11T14:10:11.140Z,96992.22
2023-04-11T14:12:39.677Z,96997.75
2023-04-11T14:15:09.550Z,96996.34
2023-04-11T14:17:39.590Z,96995.50
2023-04-11T14:20:11.823Z,97006.34
2023-04-11T14:22:42.245Z,96996.50
2023-04-11T14:25:11.901Z,97007.41
2023-04-11T14:27:44.198Z,97010.25
2023-04-11T14:30:14.730Z,96998.00
2023-04-11T14:32:49.094Z,97007.00
2023-04-11T14:35:17.669Z,97006.22
2023-04-11T14:37:47.714Z,97004.13
2023-04-11T14:40:16.182Z,97008.84
2023-04-11T14:42:44.862Z,97017.31
2023-04-11T14:45:13.512Z,97013.66
2023-04-11T14:47:43.640Z,97023.06
2023-04-11T14:50:12.759Z,97020.09
2023-04-11T14:52:41.413Z,97024.63
2023-04-11T14:55:12.038Z,97016.22
2023-04-11T14:57:45.808Z,97022.34
2023-04-11T15:00:19.476Z,97035.09
2023-04-11T15:02:49.487Z,97039.59
2023-04-11T15:05:20.014Z,97034.63
2023-04-11T15:07:50.575Z,97038.63
2023-04-11T15:10:22.574Z,97025.88
2023-04-11T15:12:51.445Z,97044.06
2023-04-11T15:15:20.075Z,97065.22
2023-04-11T15:17:50.852Z,97060.75
2023-04-11T15:20:20.207Z,97070.56
2023-04-11T15:22:49.747Z,97080.09
2023-04-11T15:25:19.725Z,97069.88
2023-04-11T15:27:48.279Z,97078.00
2023-04-11T15:30:16.920Z,97077.09
2023-04-11T15:32:45.393Z,97068.34
2023-04-11T15:35:14.035Z,97092.72
2023-04-11T15:37:43.117Z,97082.69
2023-04-11T15:40:15.287Z,97101.91
2023-04-11T15:42:45.460Z,97103.41
2023-04-11T15:45:14.178Z,97113.00
2023-04-11T15:47:42.712Z,97114.81
2023-04-11T15:50:12.294Z,97111.53
2023-04-11T15:52:40.905Z,97111.72
2023-04-11T15:55:10.198Z,97125.50
2023-04-11T15:57:38.742Z,97137.63
2023-04-11T16:00:10.306Z,97140.34
2023-04-11T16:02:39.286Z,97158.41
2023-04-11T16:05:08.772Z,97159.00
2023-04-11T16:07:37.406Z,97172.31
2023-04-11T16:10:07.955Z,97168.00
2023-04-11T16:12:37.233Z,97172.19
2023-04-11T16:15:06.285Z,97178.56
2023-04-11T16:17:36.257Z,97177.59
2023-04-11T16:20:10.426Z,97177.84
2023-04-11T16:22:40.554Z,97186.28
2023-04-11T16:25:09.413Z,97183.59
2023-04-11T16:27:37.590Z,97188.28
2023-04-11T16:30:07.884Z,97178.56
2023-04-11T16:32:37.635Z,97183.09
2023-04-11T16:35:06.593Z,97176.22
2023-04-11T16:37:34.809Z,97181.09
2023-04-11T16:40:07.207Z,97192.88
2023-04-11T16:42:35.578Z,97182.72
2023-04-11T16:45:03.896Z,97196.50
2023-04-11T16:47:32.629Z,97208.97
2023-04-11T16:50:02.887Z,97200.34
2023-04-11T16:52:32.156Z,97207.09
2023-04-11T16:55:00.641Z,97207.28
2023-04-11T16:57:28.968Z,97196.16
2023-04-11T16:59:57.325Z,97202.56
2023-04-11T17:02:26.111Z,97202.88
2023-04-11T17:04:54.734Z,97204.91
2023-04-11T17:07:25.080Z,97205.13
2023-04-11T17:09:53.754Z,97199.06
2023-04-11T17:12:22.428Z,97195.47
2023-04-11T17:14:52.694Z,97185.94
2023-04-11T17:17:23.085Z,97187.59
2023-04-11T17:19:51.617Z,97190.16
2023-04-11T17:22:20.174Z,97172.38
2023-04-11T17:24:50.080Z,97174.06
2023-04-11T17:27:18.528Z,97166.44
2023-04-11T17:29:46.942Z,97178.66
2023-04-11T17:32:15.305Z,97171.13
2023-04-11T17:34:43.848Z,97170.03
2023-04-11T17:37:12.343Z,97168.38
2023-04-11T17:39:41.735Z,97151.47
2023-04-11T17:42:13.969Z,97152.66
2023-04-11T17:44:42.550Z,97158.47
2023-04-11T17:47:11.065Z,97149.38
2023-04-11T17:49:39.522Z,97158.72
2023-04-11T17:52:07.969Z,97162.38
2023-04-11T17:54:36.612Z,97169.13
2023-04-11T17:57:05.323Z,97165.56
2023-04-11T17:59:35.759Z,97160.28
2023-04-11T18:02:04.737Z,97174.69
2023-04-11T18:04:34.522Z,97170.06
2023-04-11T18:07:03.278Z,97177.47
2023-04-11T18:09:32.055Z,97185.22
2023-04-11T18:12:01.109Z,97187.66
2023-04-11T18:14:29.846Z,97205.63
2023-04-11T18:17:00.333Z,97194.25
2023-04-11T18:19:28.729Z,97206.22
2023-04-11T18:21:57.547Z,97206.16
2023-04-11T18:24:26.946Z,97193.72
2023-04-11T18:26:55.280Z,97199.72
2023-04-11T18:29:23.739Z,97195.44
2023-04-11T18:32:19.838Z,97206.41
2023-04-11T18:34:43.921Z,97174.06
2023-04-11T18:37:12.915Z,97195.50
2023-04-11T18:39:42.093Z,97194.22
2023-04-11T18:42:10.561Z,97201.00
2023-04-11T18:44:39.290Z,97194.88
2023-04-11T18:47:10.173Z,97204.44
2023-04-11T18:49:40.191Z,97200.00
2023-04-11T18:52:11.766Z,97181.00
2023-04-11T18:54:41.175Z,97207.44
2023-04-11T18:57:13.269Z,97220.16
2023-04-11T18:59:44.194Z,97231.81
2023-04-11T19:02:17.474Z,97233.63
2023-04-11T19:04:47.661Z,97239.25
2023-04-11T19:07:22.936Z,97238.78
2023-04-11T19:09:53.242Z,97228.41
2023-04-11T19:12:23.076Z,97255.28
2023-04-11T19:14:55.557Z,97243.91
2023-04-11T19:17:24.613Z,97252.59
2023-04-11T19:19:55.459Z,97253.59
2023-04-11T19:22:26.226Z,97235.91
2023-04-11T19:24:57.795Z,97245.38
2023-04-11T19:27:26.936Z,97255.16
2023-04-11T19:29:57.675Z,97250.38
2023-04-11T19:32:26.545Z,97254.28
2023-04-11T19:34:55.515Z,97258.19
2023-04-11T19:37:26.554Z,97246.13
2023-04-11T19:39:58.747Z,97238.44
2023-04-11T19:42:31.416Z,97244.22
2023-04-11T19:45:01.289Z,97263.59
2023-04-11T19:47:31.177Z,97267.50
2023-04-11T19:50:01.340Z,97269.50
2023-04-11T19:52:32.746Z,97273.41
2023-04-11T19:55:02.155Z,97282.69
2023-04-11T19:57:31.826Z,97282.78
2023-04-11T20:00:01.036Z,97297.75
2023-04-11T20:02:30.778Z,97289.06
2023-04-11T20:05:02.321Z,97285.91
2023-04-11T20:07:32.735Z,97285.81
2023-04-11T20:10:02.741Z,97282.91
2023-04-11T20:12:32.258Z,97278.00
2023-04-11T20:15:02.744Z,97277.34
2023-04-11T20:17:32.054Z,97284.56
2023-04-11T20:20:14.646Z,97285.31
2023-04-11T20:22:47.280Z,97277.91
2023-04-11T20:25:16.417Z,97281.81
2023-04-11T20:27:46.649Z,97272.47
2023-04-11T20:30:17.482Z,97285.66
2023-04-11T20:32:46.277Z,97278.00
2023-04-11T20:35:19.551Z,97269.41
2023-04-11T20:37:50.599Z,97286.66
2023-04-11T20:40:19.680Z,97277.31
2023-04-11T20:42:49.790Z,97262.56
2023-04-11T20:45:21.947Z,97291.88
2023-04-11T20:47:50.885Z,97276.78
2023-04-11T20:50:20.001Z,97290.81
2023-04-11T20:52:54.295Z,97278.94
2023-04-11T20:55:23.257Z,97285.41
2023-04-11T20:57:51.980Z,97287.44
2023-04-11T21:00:21.299Z,97283.38
2023-04-11T21:02:51.865Z,97291.38
2023-04-11T21:05:22.181Z,97283.03
2023-04-11T21:07:54.529Z,97294.19
2023-04-11T21:10:23.130Z,97302.91
2023-04-11T21:12:54.128Z,97300.16
2023-04-11T21:15:23.260Z,97314.53
2023-04-11T21:17:52.538Z,97317.16
2023-04-11T21:20:22.449Z,97321.75
2023-04-11T21:22:54.411Z,97316.47
2023-04-11T21:25:23.773Z,97323.63
2023-04-11T21:27:52.238Z,97325.44
2023-04-11T21:30:20.818Z,97338.72
2023-04-11T21:32:49.117Z,97312.25
2023-04-11T21:35:17.417Z,97340.94
2023-04-11T21:37:47.822Z,97335.31
2023-04-11T21:40:19.004Z,97323.38
2023-04-11T21:42:47.314Z,97333.59
2023-04-11T21:45:16.894Z,97346.88
2023-04-11T21:47:45.277Z,97352.50
2023-04-11T21:50:13.678Z,97334.28
2023-04-11T21:52:41.945Z,97341.00
2023-04-11T21:55:11.601Z,97349.41
2023-04-11T21:57:41.687Z,97329.34
2023-04-11T22:00:11.941Z,97323.03
2023-04-11T22:02:41.141Z,97341.91
2023-04-11T22:05:10.107Z,97344.84
2023-04-11T22:07:47.835Z,97328.38
2023-04-11T22:10:24.049Z,97321.06
2023-04-11T22:12:54.845Z,97336.78
2023-04-11T22:15:24.473Z,97340.63
2023-04-11T22:17:54.733Z,97339.88
2023-04-11T22:20:23.283Z,97331.22
2023-04-11T22:22:51.590Z,97328.28
2023-04-11T22:25:22.509Z,97318.38
2023-04-11T22:27:54.997Z,97318.53
2023-04-11T22:30:25.022Z,97303.25
2023-04-11T22:32:54.563Z,97307.13
2023-04-11T22:35:23.502Z,97306.19
2023-04-11T22:37:53.813Z,97308.53
2023-04-11T22:40:23.536Z,97314.31
2023-04-11T22:42:52.405Z,97317.84
2023-04-11T22:45:21.451Z,97321.56
2023-04-11T22:47:54.450Z,97320.00
2023-04-11T22:50:23.112Z,97315.97
2023-04-11T22:52:51.479Z,97311.78
2023-04-11T22:55:21.375Z,97313.97
2023-04-11T22:57:49.723Z,97320.00
2023-04-11T23:00:19.174Z,97310.50
2023-04-11T23:02:47.637Z,97309.22
2023-04-11T23:05:17.950Z,97313.63
2023-04-11T23:07:46.620Z,97297.13
2023-04-11T23:10:15.580Z,97324.53
2023-04-11T23:12:44.681Z,97308.72
2023-04-11T23:15:13.432Z,97312.00
2023-04-11T23:17:41.898Z,97304.81
2023-04-11T23:20:12.973Z,97304.72
2023-04-11T23:22:44.141Z,97306.97
2023-04-11T23:25:15.269Z,97301.47
2023-04-11T23:27:44.967Z,97314.50
2023-04-11T23:30:15.215Z,97297.31
2023-04-11T23:32:43.704Z,97310.94
2023-04-11T23:35:12.104Z,97305.03
2023-04-11T23:37:41.073Z,97293.75
2023-04-11T23:40:14.150Z,97304.56
2023-04-11T23:42:42.778Z,97296.38
2023-04-11T23:45:14.379Z,97290.25
2023-04-11T23:47:42.839Z,97296.22
2023-04-11T23:50:12.312Z,97296.91
2023-04-11T23:52:40.798Z,97296.75
2023-04-11T23:55:12.417Z,97295.91
2023-04-11T23:57:40.732Z,97277.00
